createdAt,value
2019-01-26T00:00:37.210Z,15.33
2019-01-26T00:03:23.939Z,12.40
2019-01-26T00:06:11.018Z,12.93
2019-01-26T00:08:58.408Z,10.87
2019-01-26T00:11:45.965Z,12.17
2019-01-26T00:14:33.302Z,10.70
2019-01-26T00:17:20.233Z,12.67
2019-01-26T00:20:07.517Z,12.50
2019-01-26T00:22:54.513Z,14.37
2019-01-26T00:25:41.734Z,11.20
2019-01-26T00:28:28.483Z,9.70
2019-01-26T00:31:15.293Z,11.07
2019-01-26T00:34:02.850Z,9.23
2019-01-26T00:36:49.893Z,12.03
2019-01-26T00:39:37.566Z,10.87
2019-01-26T00:42:24.831Z,9.10
2019-01-26T00:45:11.503Z,9.57
2019-01-26T00:47:58.880Z,9.00
2019-01-26T00:50:46.278Z,9.40
2019-01-26T00:53:33.392Z,8.40
2019-01-26T00:56:20.435Z,7.23
2019-01-26T00:59:07.200Z,12.43
2019-01-26T01:01:54.512Z,9.80
2019-01-26T01:04:42.271Z,8.97
2019-01-26T01:07:29.378Z,9.10
2019-01-26T01:10:16.521Z,10.30
2019-01-26T01:13:03.426Z,8.17
2019-01-26T01:15:50.480Z,9.93
2019-01-26T01:18:37.804Z,8.27
2019-01-26T01:21:24.718Z,8.13
2019-01-26T01:24:11.636Z,8.40
2019-01-26T01:26:58.913Z,7.80
2019-01-26T01:29:45.985Z,6.60
2019-01-26T01:32:32.924Z,8.40
2019-01-26T01:35:19.962Z,7.60
2019-01-26T01:38:07.097Z,9.10
2019-01-26T01:40:54.328Z,6.80
2019-01-26T01:43:41.214Z,8.00
2019-01-26T01:46:27.889Z,7.40
2019-01-26T01:49:15.257Z,6.40
2019-01-26T01:52:02.408Z,7.40
2019-01-26T01:54:49.672Z,6.27
2019-01-26T01:57:36.588Z,6.60
2019-01-26T02:00:24.670Z,6.70
2019-01-26T02:03:11.644Z,7.53
2019-01-26T02:05:58.593Z,7.30
2019-01-26T02:08:45.696Z,5.63
2019-01-26T02:11:32.745Z,6.77
2019-01-26T02:14:20.052Z,6.57
2019-01-26T02:17:07.085Z,6.13
2019-01-26T02:19:54.206Z,7.17
2019-01-26T02:22:41.269Z,7.03
2019-01-26T02:25:28.612Z,7.47
2019-01-26T02:28:15.790Z,5.97
2019-01-26T02:31:03.077Z,6.57
2019-01-26T02:33:50.508Z,6.47
2019-01-26T02:36:37.803Z,6.10
2019-01-26T02:39:25.557Z,4.93
2019-01-26T02:42:12.470Z,5.03
2019-01-26T02:44:59.495Z,5.00
2019-01-26T02:47:46.315Z,5.43
2019-01-26T02:50:33.413Z,4.37
2019-01-26T02:53:20.577Z,3.43
2019-01-26T02:56:07.319Z,3.50
2019-01-26T02:58:54.287Z,3.43
2019-01-26T03:01:41.149Z,3.13
2019-01-26T03:04:28.449Z,3.20
2019-01-26T03:07:15.769Z,2.20
2019-01-26T03:10:03.005Z,2.30
2019-01-26T03:12:49.990Z,1.77
2019-01-26T03:15:37.132Z,1.87
2019-01-26T03:18:24.150Z,1.30
2019-01-26T03:21:11.140Z,1.50
2019-01-26T03:23:58.309Z,1.80
2019-01-26T03:26:45.135Z,2.00
2019-01-26T03:29:31.891Z,1.60
2019-01-26T03:32:18.819Z,2.27
2019-01-26T03:35:06.077Z,1.80
2019-01-26T03:37:53.132Z,2.10
2019-01-26T03:40:40.517Z,1.40
2019-01-26T03:43:27.861Z,1.53
2019-01-26T03:46:14.929Z,1.87
2019-01-26T03:49:01.790Z,1.70
2019-01-26T03:51:48.668Z,1.53
2019-01-26T03:54:35.410Z,1.40
2019-01-26T03:57:22.147Z,1.87
2019-01-26T04:00:10.619Z,2.60
2019-01-26T04:02:57.097Z,1.13
2019-01-26T04:05:43.852Z,1.77
2019-01-26T04:08:30.811Z,1.37
2019-01-26T04:11:17.471Z,1.80
2019-01-26T04:14:04.864Z,1.80
2019-01-26T04:16:51.781Z,1.80
2019-01-26T04:19:38.823Z,2.23
2019-01-26T04:22:26.162Z,1.47
2019-01-26T04:25:13.230Z,1.20
2019-01-26T04:28:00.300Z,1.50
2019-01-26T04:30:47.393Z,1.90
2019-01-26T04:33:34.309Z,1.90
2019-01-26T04:36:21.521Z,1.93
2019-01-26T04:39:08.520Z,1.57
2019-01-26T04:41:55.351Z,1.60
2019-01-26T04:44:42.393Z,1.30
2019-01-26T04:47:31.120Z,2.17
2019-01-26T04:50:18.351Z,1.60
2019-01-26T04:53:05.535Z,2.03
2019-01-26T04:55:52.763Z,1.00
2019-01-26T04:58:39.773Z,1.30
2019-01-26T05:01:26.890Z,1.80
2019-01-26T05:04:13.679Z,1.43
2019-01-26T05:07:00.604Z,2.30
2019-01-26T05:09:47.284Z,1.27
2019-01-26T05:12:34.269Z,1.90
2019-01-26T05:15:20.950Z,1.60
2019-01-26T05:18:08.416Z,1.50
2019-01-26T05:20:55.629Z,1.30
2019-01-26T05:23:42.822Z,1.87
2019-01-26T05:26:29.847Z,1.50
2019-01-26T05:29:17.299Z,1.20
2019-01-26T05:32:04.308Z,1.67
2019-01-26T05:34:51.231Z,1.27
2019-01-26T05:37:38.240Z,1.40
2019-01-26T05:40:25.576Z,1.30
2019-01-26T05:43:12.567Z,1.43
2019-01-26T05:45:59.469Z,2.00
2019-01-26T05:48:46.580Z,1.67
2019-01-26T05:51:33.668Z,1.30
2019-01-26T05:54:20.694Z,1.70
2019-01-26T05:57:07.454Z,1.87
2019-01-26T05:59:54.645Z,1.80
2019-01-26T06:02:41.879Z,1.23
2019-01-26T06:05:28.895Z,1.23
2019-01-26T06:08:16.008Z,1.57
2019-01-26T06:11:03.098Z,1.57
2019-01-26T06:13:49.928Z,1.40
2019-01-26T06:16:36.823Z,2.10
2019-01-26T06:19:23.909Z,1.73
2019-01-26T06:22:10.883Z,1.00
2019-01-26T06:24:57.979Z,1.60
2019-01-26T06:27:45.192Z,1.53
2019-01-26T06:30:32.187Z,1.17
2019-01-26T06:33:19.396Z,1.30
2019-01-26T06:36:06.217Z,0.97
2019-01-26T06:38:53.577Z,1.17
2019-01-26T06:41:40.540Z,0.90
2019-01-26T06:44:27.727Z,0.80
2019-01-26T06:47:14.671Z,1.70
2019-01-26T06:50:01.656Z,1.63
2019-01-26T06:52:48.920Z,1.63
2019-01-26T06:55:35.888Z,1.50
2019-01-26T06:58:23.247Z,1.87
2019-01-26T07:01:13.348Z,2.13
2019-01-26T07:04:00.321Z,1.30
2019-01-26T07:07:05.200Z,1.70
2019-01-26T07:09:52.124Z,1.77
2019-01-26T07:12:39.292Z,1.50
2019-01-26T07:15:26.841Z,1.73
2019-01-26T07:18:14.243Z,1.53
2019-01-26T07:21:01.595Z,1.40
2019-01-26T07:23:48.591Z,1.60
2019-01-26T07:26:35.593Z,1.50
2019-01-26T07:29:22.413Z,1.63
2019-01-26T07:32:09.481Z,1.47
2019-01-26T07:34:56.773Z,1.80
2019-01-26T07:37:44.093Z,1.30
2019-01-26T07:40:31.470Z,1.60
2019-01-26T07:43:18.696Z,1.53
2019-01-26T07:46:05.867Z,1.50
2019-01-26T07:48:53.030Z,1.80
2019-01-26T07:51:40.000Z,2.37
2019-01-26T07:54:27.294Z,1.33
2019-01-26T07:57:14.467Z,1.03
2019-01-26T08:00:01.776Z,1.80
2019-01-26T08:02:49.104Z,2.10
2019-01-26T08:05:36.231Z,1.63
2019-01-26T08:08:23.574Z,1.40
2019-01-26T08:11:10.714Z,1.70
2019-01-26T08:13:57.605Z,1.60
2019-01-26T08:16:44.572Z,1.30
2019-01-26T08:19:31.657Z,1.40
2019-01-26T08:22:18.655Z,1.50
2019-01-26T08:25:05.660Z,1.40
2019-01-26T08:27:52.809Z,1.23
2019-01-26T08:30:39.842Z,1.57
2019-01-26T08:33:26.866Z,1.80
2019-01-26T08:36:14.383Z,1.33
2019-01-26T08:39:01.873Z,1.73
2019-01-26T12:53:39.514Z,3.00
2019-01-26T12:56:26.706Z,1.67
2019-01-26T12:59:13.663Z,1.27
2019-01-26T13:05:21.808Z,1.80
2019-01-26T16:18:54.276Z,1.80
2019-01-26T16:21:41.770Z,1.67
2019-01-26T16:24:28.982Z,1.77
2019-01-26T16:27:16.027Z,1.80
2019-01-26T16:30:03.062Z,2.17
2019-01-26T16:32:50.472Z,1.90
2019-01-26T16:35:37.505Z,2.50
2019-01-26T16:38:25.006Z,1.80
2019-01-26T16:41:12.489Z,1.80
2019-01-26T16:44:00.646Z,2.13
2019-01-26T16:46:47.919Z,2.10
2019-01-26T16:49:35.097Z,1.60
2019-01-26T16:52:22.622Z,1.90
2019-01-26T16:55:10.351Z,1.77
2019-01-26T16:57:57.674Z,1.90
2019-01-26T17:00:46.113Z,2.00
2019-01-26T17:03:33.247Z,1.73
2019-01-26T17:06:20.106Z,2.00
2019-01-26T17:09:08.629Z,1.97
2019-01-26T17:11:55.644Z,1.90
2019-01-26T17:14:43.519Z,3.97
2019-01-26T17:17:30.985Z,2.43
2019-01-26T17:20:22.319Z,2.60
2019-01-26T17:23:09.795Z,2.23
2019-01-26T17:25:56.833Z,2.47
2019-01-26T17:28:44.031Z,2.50
2019-01-26T17:31:30.743Z,2.27
2019-01-26T17:34:17.566Z,2.23
2019-01-26T17:37:05.082Z,2.10
2019-01-26T17:39:52.663Z,2.20
2019-01-26T17:42:39.437Z,2.90
2019-01-26T17:45:26.392Z,2.87
2019-01-26T17:48:13.444Z,2.03
2019-01-26T17:51:00.645Z,1.63
2019-01-26T17:53:47.909Z,2.57
2019-01-26T17:56:35.445Z,2.37
2019-01-26T17:59:22.503Z,2.10
2019-01-26T18:02:09.458Z,2.30
2019-01-26T18:04:56.575Z,2.00
2019-01-26T18:07:43.683Z,2.00
2019-01-26T18:10:30.823Z,2.10
2019-01-26T18:13:18.171Z,2.50
2019-01-26T18:16:05.693Z,2.20
2019-01-26T18:18:53.783Z,2.40
2019-01-26T18:21:41.008Z,2.70
2019-01-26T18:24:28.388Z,2.27
2019-01-26T18:27:15.975Z,1.80
2019-01-26T18:30:03.287Z,1.97
2019-01-26T18:32:50.863Z,1.73
2019-01-26T18:35:38.281Z,3.10
2019-01-26T18:38:28.006Z,2.33
2019-01-26T18:41:15.838Z,2.80
2019-01-26T18:44:03.683Z,2.53
2019-01-26T18:46:50.562Z,2.63
2019-01-26T18:49:37.611Z,2.47
2019-01-26T18:52:25.046Z,2.30
2019-01-26T18:55:12.266Z,2.77
2019-01-26T18:57:59.808Z,3.40
2019-01-26T19:00:47.889Z,2.60
2019-01-26T19:03:44.246Z,3.40
2019-01-26T19:06:31.298Z,3.37
2019-01-26T19:09:18.483Z,3.23
2019-01-26T19:12:05.482Z,2.77
2019-01-26T19:14:52.851Z,3.00
2019-01-26T19:17:40.145Z,2.77
2019-01-26T19:20:27.874Z,3.23
2019-01-26T19:23:14.846Z,3.10
2019-01-26T19:26:02.215Z,3.30
2019-01-26T19:28:49.412Z,2.63
2019-01-26T19:31:36.265Z,3.00
2019-01-26T19:34:23.689Z,3.50
2019-01-26T19:37:10.969Z,3.97
2019-01-26T19:39:58.167Z,3.10
2019-01-26T19:42:45.451Z,3.20
2019-01-26T19:45:32.814Z,3.53
2019-01-26T19:48:20.287Z,3.50
2019-01-26T19:51:10.049Z,3.47
2019-01-26T19:53:56.611Z,3.90
2019-01-26T19:56:43.402Z,3.80
2019-01-26T19:59:30.374Z,3.40
2019-01-26T20:02:17.093Z,3.60
2019-01-26T20:05:05.624Z,3.73
2019-01-26T20:07:52.862Z,3.40
2019-01-26T20:10:41.534Z,3.00
2019-01-26T20:13:28.345Z,3.77
2019-01-26T20:16:15.954Z,3.60
2019-01-26T20:19:03.221Z,2.87
2019-01-26T20:21:50.744Z,2.87
2019-01-26T20:24:37.888Z,3.27
2019-01-26T20:27:24.956Z,3.80
2019-01-26T20:30:13.732Z,4.53
2019-01-26T20:33:01.126Z,4.83
2019-01-26T20:35:51.119Z,4.30
2019-01-26T20:38:38.233Z,4.73
2019-01-26T20:41:25.263Z,5.07
2019-01-26T20:44:12.715Z,4.70
2019-01-26T20:46:59.933Z,5.43
2019-01-26T20:49:46.859Z,3.87
2019-01-26T20:52:35.517Z,5.33
2019-01-26T20:55:22.651Z,5.47
2019-01-26T20:58:09.762Z,4.70
2019-01-26T21:00:57.229Z,4.87
2019-01-26T21:03:44.189Z,5.60
2019-01-26T21:06:30.971Z,4.97
2019-01-26T21:09:18.107Z,4.60
2019-01-26T21:12:05.310Z,4.67
2019-01-26T21:14:52.429Z,4.60
2019-01-26T21:17:40.452Z,4.30
2019-01-26T21:20:27.662Z,4.93
2019-01-26T21:23:14.927Z,5.23
2019-01-26T21:26:02.059Z,4.50
2019-01-26T21:28:49.204Z,5.37
2019-01-26T21:31:36.561Z,4.80
2019-01-26T21:34:24.437Z,5.80
2019-01-26T21:37:11.410Z,5.63
2019-01-26T21:39:58.398Z,4.77
2019-01-26T21:42:45.821Z,7.13
2019-01-26T21:45:33.066Z,5.30
2019-01-26T21:48:21.403Z,6.10
2019-01-26T21:51:08.427Z,6.10
2019-01-26T21:53:55.442Z,6.13
2019-01-26T21:56:42.876Z,6.00
2019-01-26T21:59:30.034Z,6.10
2019-01-26T22:02:17.030Z,6.57
2019-01-26T22:05:04.866Z,6.57
2019-01-26T22:07:52.260Z,6.70
2019-01-26T22:10:39.064Z,6.80
2019-01-26T22:13:27.298Z,6.70
2019-01-26T22:16:14.448Z,6.57
2019-01-26T22:19:01.743Z,6.90
2019-01-26T22:21:49.195Z,7.40
2019-01-26T22:24:36.571Z,7.40
2019-01-26T22:27:23.940Z,6.20
2019-01-26T22:30:12.625Z,6.33
2019-01-26T22:33:00.214Z,6.70
2019-01-26T22:35:47.401Z,6.77
2019-01-26T22:38:35.183Z,6.53
2019-01-26T22:41:22.182Z,6.70
2019-01-26T22:44:08.982Z,5.43
2019-01-26T22:46:56.282Z,7.07
2019-01-26T22:49:43.916Z,7.40
2019-01-26T22:52:30.917Z,7.20
2019-01-26T22:55:18.188Z,7.60
2019-01-26T22:58:05.823Z,7.20
2019-01-26T23:00:56.735Z,7.30
2019-01-26T23:04:05.813Z,6.33
2019-01-26T23:07:02.741Z,6.63
2019-01-26T23:10:18.121Z,7.10
2019-01-26T23:13:08.026Z,7.13
2019-01-26T23:16:08.051Z,6.63
2019-01-26T23:19:04.152Z,7.87
2019-01-26T23:22:08.808Z,7.20
2019-01-26T23:25:00.810Z,7.30
2019-01-26T23:27:53.662Z,7.07
2019-01-26T23:30:58.323Z,6.70
2019-01-26T23:33:45.647Z,7.40
2019-01-26T23:36:32.841Z,7.40
2019-01-26T23:39:20.163Z,7.93
2019-01-26T23:42:07.397Z,6.80
2019-01-26T23:44:55.662Z,6.83
2019-01-26T23:47:43.187Z,6.53
2019-01-26T23:50:30.455Z,7.77
2019-01-26T23:53:17.996Z,7.47
2019-01-26T23:56:05.130Z,7.30
2019-01-26T23:58:52.291Z,5.97
